SHT22A EGLL-EGJB
Flight info
| Callsign | SHT22A |
|---|---|
| Flight time | N/A |
| Altitude | 22000 |
| Route | GASGU N514 EVTES/N0398F210 N621 SAM/N0392F200 N63 LELNA |
| Aircraft | A319/M-SDE3FGHIRWY/LB1 |
Departure
| Time | N/A |
|---|---|
| Airport | London Heathrow Airport (EGLL) |
Arrival
| Time | 2026-04-26 12:58 |
|---|---|
| Airport | Guernsey Airport (EGJB) |
| Time | Latitude | Longitude | Altitude | Speed | Heading |
|---|---|---|---|---|---|
| 2026-04-26 12:43 | 49.99456 | -2.09381 | 20622 ft | 429 kts | 220° |
| 2026-04-26 12:43 | 49.97176 | -2.12345 | 19705 ft | 426 kts | 221° |
| 2026-04-26 12:44 | 49.94937 | -2.15327 | 18804 ft | 422 kts | 222° |
| 2026-04-26 12:44 | 49.92729 | -2.18282 | 17835 ft | 417 kts | 222° |
| 2026-04-26 12:44 | 49.90536 | -2.21189 | 16951 ft | 411 kts | 221° |
| 2026-04-26 12:44 | 49.88372 | -2.24030 | 16081 ft | 405 kts | 221° |
| 2026-04-26 12:45 | 49.86225 | -2.26823 | 15234 ft | 401 kts | 220° |
| 2026-04-26 12:45 | 49.84092 | -2.29579 | 14421 ft | 397 kts | 220° |
| 2026-04-26 12:45 | 49.81973 | -2.32309 | 13593 ft | 395 kts | 220° |
| 2026-04-26 12:45 | 49.79878 | -2.35009 | 12835 ft | 389 kts | 220° |
| 2026-04-26 12:46 | 49.77815 | -2.37668 | 12104 ft | 383 kts | 220° |
| 2026-04-26 12:46 | 49.75788 | -2.40280 | 11491 ft | 374 kts | 220° |
| 2026-04-26 12:46 | 49.73844 | -2.42785 | 11355 ft | 353 kts | 220° |
| 2026-04-26 12:46 | 49.72009 | -2.45145 | 11226 ft | 334 kts | 219° |
| 2026-04-26 12:47 | 49.70265 | -2.47385 | 11103 ft | 319 kts | 219° |
| 2026-04-26 12:47 | 49.68597 | -2.49523 | 10979 ft | 305 kts | 219° |
| 2026-04-26 12:47 | 49.66994 | -2.51574 | 10840 ft | 294 kts | 219° |
| 2026-04-26 12:47 | 49.65433 | -2.53568 | 10585 ft | 289 kts | 219° |
| 2026-04-26 12:48 | 49.63895 | -2.55534 | 10350 ft | 286 kts | 219° |
| 2026-04-26 12:48 | 49.62362 | -2.57497 | 10162 ft | 286 kts | 219° |
| 2026-04-26 12:48 | 49.60835 | -2.59455 | 10033 ft | 286 kts | 219° |
| 2026-04-26 12:48 | 49.59306 | -2.61407 | 9910 ft | 285 kts | 219° |
| 2026-04-26 12:49 | 49.57779 | -2.63348 | 9758 ft | 285 kts | 219° |
| 2026-04-26 12:49 | 49.56235 | -2.65309 | 9228 ft | 290 kts | 219° |
| 2026-04-26 12:49 | 49.54689 | -2.67277 | 8781 ft | 290 kts | 219° |
| 2026-04-26 12:49 | 49.53137 | -2.69254 | 8445 ft | 287 kts | 220° |
| 2026-04-26 12:50 | 49.51649 | -2.71245 | 8052 ft | 279 kts | 229° |
| 2026-04-26 12:50 | 49.50702 | -2.73801 | 7394 ft | 278 kts | 255° |
| 2026-04-26 12:50 | 49.50395 | -2.76760 | 6664 ft | 282 kts | 265° |
| 2026-04-26 12:50 | 49.50203 | -2.79762 | 5969 ft | 282 kts | 265° |
| 2026-04-26 12:51 | 49.50023 | -2.82758 | 5327 ft | 280 kts | 265° |
| 2026-04-26 12:51 | 49.49848 | -2.85688 | 4688 ft | 278 kts | 265° |
| 2026-04-26 12:51 | 49.49680 | -2.88639 | 4067 ft | 276 kts | 265° |
| 2026-04-26 12:51 | 49.49394 | -2.91538 | 3436 ft | 274 kts | 250° |
| 2026-04-26 12:52 | 49.48367 | -2.93907 | 3052 ft | 262 kts | 220° |
| 2026-04-26 12:52 | 49.46815 | -2.95063 | 2984 ft | 239 kts | 188° |
| 2026-04-26 12:52 | 49.45228 | -2.94811 | 2989 ft | 226 kts | 159° |
| 2026-04-26 12:52 | 49.43908 | -2.93579 | 2991 ft | 222 kts | 136° |
| 2026-04-26 12:53 | 49.43007 | -2.91681 | 2992 ft | 221 kts | 114° |
| 2026-04-26 12:53 | 49.42654 | -2.89405 | 3001 ft | 220 kts | 91° |
| 2026-04-26 12:53 | 49.42711 | -2.87049 | 3000 ft | 221 kts | 86° |
| 2026-04-26 12:53 | 49.42784 | -2.84764 | 2993 ft | 206 kts | 86° |
| 2026-04-26 12:54 | 49.42849 | -2.82631 | 2946 ft | 196 kts | 87° |
| 2026-04-26 12:54 | 49.42910 | -2.80566 | 2769 ft | 191 kts | 87° |
| 2026-04-26 12:54 | 49.42970 | -2.78553 | 2569 ft | 184 kts | 87° |
| 2026-04-26 12:54 | 49.43026 | -2.76652 | 2308 ft | 170 kts | 88° |
| 2026-04-26 12:55 | 49.43077 | -2.74862 | 2091 ft | 166 kts | 88° |
| 2026-04-26 12:55 | 49.43128 | -2.73106 | 1859 ft | 163 kts | 88° |
| 2026-04-26 12:55 | 49.43177 | -2.71430 | 1641 ft | 148 kts | 88° |
| 2026-04-26 12:55 | 49.43220 | -2.69939 | 1446 ft | 134 kts | 88° |
| 2026-04-26 12:56 | 49.43260 | -2.68537 | 1272 ft | 130 kts | 88° |
| 2026-04-26 12:56 | 49.43302 | -2.67165 | 1099 ft | 128 kts | 88° |
| 2026-04-26 12:56 | 49.43342 | -2.65799 | 914 ft | 128 kts | 89° |
| 2026-04-26 12:56 | 49.43374 | -2.64435 | 734 ft | 128 kts | 89° |
| 2026-04-26 12:57 | 49.43416 | -2.63077 | 579 ft | 127 kts | 88° |
| 2026-04-26 12:57 | 49.43454 | -2.61749 | 391 ft | 126 kts | 88° |
| 2026-04-26 12:57 | 49.43488 | -2.60486 | 331 ft | 96 kts | 88° |
| 2026-04-26 12:58 | 49.43360 | -2.59849 | 350 ft | 17 kts | 152° |
| 2026-04-26 12:58 | 49.43362 | -2.59686 | 344 ft | 17 kts | 83° |
| 2026-04-26 12:58 | 49.43294 | -2.59627 | 344 ft | 13 kts | 175° |
| 2026-04-26 12:58 | 49.43254 | -2.59622 | 344 ft | 0 kts | 176° |